Time;durP1;ratioP1;P1;durP2;ratioP2;P2;SDS_P1;SDS_P2;PMS_P1;PMS_P2;Temp;Humidity;BMP_temperature;BMP_pressure;BME280_temperature;BME280_humidity;BME280_pressure;Samples;Min_cycle;Max_cycle;Signal;HPM_P1;HPM_P2
2021/11/11 00:00:43;;;;;;;;;;;;;;;;;;5067512;28;1392;-53
2021/11/11 00:03:08;;;;;;;;;;;;;;;;;;5067862;28;1195;-52
2021/11/11 00:05:34;;;;;;;;;;;;;;;;;;5066091;28;1455;-52
2021/11/11 00:08:00;;;;;;;;;;;;;;;;;;5068136;28;1274;-52
2021/11/11 00:10:25;;;;;;;;;;;;;;;;;;5068655;28;1200;-53
2021/11/11 00:12:51;;;;;;;;;;;;;;;;;;5066032;28;1532;-52
2021/11/11 00:15:16;;;;;;;;;;;;;;;;;;5068604;28;1902;-53
2021/11/11 00:17:41;;;;;;;;;;;;;;;;;;5068130;28;1364;-53
2021/11/11 00:20:07;;;;;;;;;;;;;;;;;;5067842;28;1377;-54
2021/11/11 00:22:32;;;;;;;;;;;;;;;;;;5067620;28;1215;-53
2021/11/11 00:24:58;;;;;;;;;;;;;;;;;;5068600;28;1155;-53
2021/11/11 00:27:23;;;;;;;;;;;;;;;;;;5068029;28;1275;-53
2021/11/11 00:29:48;;;;;;;;;;;;;;;;;;5049030;28;1390;-54
2021/11/11 00:32:14;;;;;;;;;;;;;;;;;;5068110;28;1262;-53
2021/11/11 00:34:39;;;;;;;;;;;;;;;;;;5064990;28;1961;-54
2021/11/11 00:37:04;;;;;;;;;;;;;;;;;;5067792;28;1275;-54
2021/11/11 00:39:30;;;;;;;;;;;;;;;;;;5066172;28;1383;-53
2021/11/11 00:41:55;;;;;;;;;;;;;;;;;;5067074;28;1353;-53
2021/11/11 00:44:20;;;;;;;;;;;;;;;;;;5067770;28;1175;-54
2021/11/11 00:46:46;;;;;;;;;;;;;;;;;;5066970;28;1262;-53
2021/11/11 00:49:11;;;;;;;;;;;;;;;;;;5064582;28;1415;-52
2021/11/11 00:51:36;;;;;;;;;;;;;;;;;;5067481;28;1172;-53
2021/11/11 00:54:02;;;;;;;;;;;;;;;;;;5067527;28;1957;-54
2021/11/11 00:56:27;;;;;;;;;;;;;;;;;;5066770;28;1494;-51
2021/11/11 00:58:52;;;;;;;;;;;;;;;;;;5066207;28;1322;-54
2021/11/11 01:01:17;;;;;;;;;;;;;;;;;;5067603;28;1148;-55
2021/11/11 01:03:43;;;;;;;;;;;;;;;;;;5065515;28;1432;-51
2021/11/11 01:06:08;;;;;;;;;;;;;;;;;;5064325;28;1541;-54
2021/11/11 01:08:33;;;;;;;;;;;;;;;;;;5062450;28;1232;-53
2021/11/11 01:11:02;;;;;;;;;;;;;;;;;;5048210;28;1347;-52
2021/11/11 01:13:27;;;;;;;;;;;;;;;;;;5064983;28;1910;-54
2021/11/11 01:15:52;;;;;;;;;;;;;;;;;;5064407;28;1536;-53
2021/11/11 01:18:17;;;;;;;;;;;;;;;;;;5060884;28;1490;-54
2021/11/11 01:20:43;;;;;;;;;;;;;;;;;;5063019;28;1356;-54
2021/11/11 01:23:08;;;;;;;;;;;;;;;;;;5065141;28;1214;-52
2021/11/11 01:25:35;;;;;;;;;;;;;;;;;;5064534;28;1492;-53
2021/11/11 01:28:00;;;;;;;;;;;;;;;;;;5059351;28;1628;-53
2021/11/11 01:30:25;;;;;;;;;;;;;;;;;;5061725;28;1141;-54
2021/11/11 01:32:50;;;;;;;;;;;;;;;;;;5066400;28;1124;-53
2021/11/11 01:35:16;;;;;;;;;;;;;;;;;;5065159;28;1906;-54
2021/11/11 01:37:41;;;;;;;;;;;;;;;;;;5064443;28;1655;-54
2021/11/11 01:40:07;;;;;;;;;;;;;;;;;;5061945;28;1372;-54
2021/11/11 01:42:41;;;;;;;;;;;;;;;;;;5064485;28;1094;-51
2021/11/11 01:45:07;;;;;;;;;;;;;;;;;;5065321;28;1177;-53
2021/11/11 01:47:32;;;;;;;;;;;;;;;;;;5064219;28;1533;-54
2021/11/11 01:49:57;;;;;;;;;;;;;;;;;;5062053;28;1482;-53
2021/11/11 01:52:22;;;;;;;;;;;;;;;;;;5063322;28;1600;-54
2021/11/11 01:54:49;;;;;;;;;;;;;;;;;;5063147;28;1909;-54
2021/11/11 01:57:14;;;;;;;;;;;;;;;;;;5047092;28;1719;-54
2021/11/11 01:59:40;;;;;;;;;;;;;;;;;;5061258;28;1424;-54
2021/11/11 02:02:05;;;;;;;;;;;;;;;;;;5059913;28;1466;-54
2021/11/11 02:04:30;;;;;;;;;;;;;;;;;;5061322;28;1487;-54
2021/11/11 02:06:55;;;;;;;;;;;;;;;;;;5061813;28;1596;-53
2021/11/11 02:09:20;;;;;;;;;;;;;;;;;;5063259;28;1035;-54
2021/11/11 02:11:47;;;;;;;;;;;;;;;;;;5043224;28;1427;-51
2021/11/11 02:14:12;;;;;;;;;;;;;;;;;;5060650;28;1968;-52
2021/11/11 02:16:37;;;;;;;;;;;;;;;;;;5063218;28;1279;-54
2021/11/11 02:19:04;;;;;;;;;;;;;;;;;;5065488;28;1450;-53
2021/11/11 02:21:29;;;;;;;;;;;;;;;;;;5064358;28;1545;-54
2021/11/11 02:23:54;;;;;;;;;;;;;;;;;;5061496;28;1167;-52
2021/11/11 02:26:20;;;;;;;;;;;;;;;;;;5064540;28;1607;-55
2021/11/11 02:28:45;;;;;;;;;;;;;;;;;;5064037;28;1458;-51
2021/11/11 02:31:10;;;;;;;;;;;;;;;;;;5066442;28;1450;-53
2021/11/11 02:33:36;;;;;;;;;;;;;;;;;;5066606;28;1968;-54
2021/11/11 02:36:01;;;;;;;;;;;;;;;;;;5068306;28;1648;-52
2021/11/11 02:38:27;;;;;;;;;;;;;;;;;;5070076;28;1322;-54
2021/11/11 02:40:52;;;;;;;;;;;;;;;;;;5066981;28;1426;-53
2021/11/11 02:43:17;;;;;;;;;;;;;;;;;;5064762;28;1124;-53
2021/11/11 02:45:43;;;;;;;;;;;;;;;;;;5068684;28;1167;-55
2021/11/11 02:48:09;;;;;;;;;;;;;;;;;;5068396;28;1914;-54
2021/11/11 02:50:35;;;;;;;;;;;;;;;;;;5069015;28;1439;-53
2021/11/11 02:53:00;;;;;;;;;;;;;;;;;;5065813;28;1642;-53
2021/11/11 02:55:25;;;;;;;;;;;;;;;;;;5067456;28;2406;-54
2021/11/11 02:57:51;;;;;;;;;;;;;;;;;;5064878;28;1598;-54
2021/11/11 03:00:19;;;;;;;;;;;;;;;;;;5064713;28;1203;-54
2021/11/11 03:02:46;;;;;;;;;;;;;;;;;;5066949;28;1113;-53
2021/11/11 03:05:13;;;;;;;;;;;;;;;;;;5068332;28;1408;-53
2021/11/11 03:07:39;;;;;;;;;;;;;;;;;;5065064;28;1706;-55
2021/11/11 03:10:05;;;;;;;;;;;;;;;;;;5067412;28;1115;-54
2021/11/11 03:12:30;;;;;;;;;;;;;;;;;;5067029;28;1475;-54
2021/11/11 03:14:55;;;;;;;;;;;;;;;;;;5065785;28;1957;-52
2021/11/11 03:17:20;;;;;;;;;;;;;;;;;;5066652;28;1304;-54
2021/11/11 03:19:46;;;;;;;;;;;;;;;;;;5067074;28;1701;-53
2021/11/11 03:22:12;;;;;;;;;;;;;;;;;;5065884;28;1560;-53
2021/11/11 03:24:38;;;;;;;;;;;;;;;;;;5065686;28;1195;-54
2021/11/11 03:27:03;;;;;;;;;;;;;;;;;;5063949;28;1907;-53
2021/11/11 03:29:28;;;;;;;;;;;;;;;;;;5063361;28;1434;-54
2021/11/11 03:31:53;;;;;;;;;;;;;;;;;;5068367;28;1136;-54
2021/11/11 03:34:19;;;;;;;;;;;;;;;;;;5067820;28;1961;-54
2021/11/11 03:36:45;;;;;;;;;;;;;;;;;;5068226;28;1274;-53
2021/11/11 03:39:10;;;;;;;;;;;;;;;;;;5066585;28;1400;-54
2021/11/11 03:41:35;;;;;;;;;;;;;;;;;;5067762;28;1632;-52
2021/11/11 03:44:01;;;;;;;;;;;;;;;;;;5061618;28;2001;-53
2021/11/11 03:46:26;;;;;;;;;;;;;;;;;;5065689;28;1459;-52
2021/11/11 03:48:51;;;;;;;;;;;;;;;;;;5064619;28;1655;-55
2021/11/11 03:51:16;;;;;;;;;;;;;;;;;;5047196;28;1203;-54
2021/11/11 03:53:43;;;;;;;;;;;;;;;;;;5064891;28;1906;-53
2021/11/11 03:56:08;;;;;;;;;;;;;;;;;;5068357;28;1292;-51
2021/11/11 03:58:33;;;;;;;;;;;;;;;;;;5068950;28;1355;-53
2021/11/11 04:00:59;;;;;;;;;;;;;;;;;;5067174;28;1391;-53
2021/11/11 04:03:24;;;;;;;;;;;;;;;;;;5067443;28;1699;-55
2021/11/11 04:05:49;;;;;;;;;;;;;;;;;;5062446;28;1575;-53
2021/11/11 04:08:14;;;;;;;;;;;;;;;;;;5063192;28;1411;-54
2021/11/11 04:10:39;;;;;;;;;;;;;;;;;;5066059;28;1560;-54
2021/11/11 04:13:05;;;;;;;;;;;;;;;;;;5060879;28;1447;-54
2021/11/11 04:15:30;;;;;;;;;;;;;;;;;;5067057;28;1977;-54
2021/11/11 04:17:55;;;;;;;;;;;;;;;;;;5064606;28;1632;-54
2021/11/11 04:20:20;;;;;;;;;;;;;;;;;;5063370;28;1572;-53
2021/11/11 04:22:46;;;;;;;;;;;;;;;;;;5062641;28;1384;-54
2021/11/11 04:25:16;;;;;;;;;;;;;;;;;;5066426;28;1156;-53
2021/11/11 04:27:50;;;;;;;;;;;;;;;;;;5062348;28;1565;-54
2021/11/11 04:30:32;;;;;;;;;;;;;;;;;;5062482;28;1005;-54
2021/11/11 04:32:57;;;;;;;;;;;;;;;;;;5058880;28;1474;-54
2021/11/11 04:35:22;;;;;;;;;;;;;;;;;;5062148;28;1946;-54
2021/11/11 04:40:37;;;;;;;;;;;;;;;;;;5066037;28;1435;-54
2021/11/11 04:43:15;;;;;;;;;;;;;;;;;;5066061;28;1507;-52
2021/11/11 05:04:18;;;;;;;;;;;;;;;;;;5062224;28;1467;-53
2021/11/11 05:06:44;;;;;;;;;;;;;;;;;;5065384;28;1465;-51
2021/11/11 05:09:09;;;;;;;;;;;;;;;;;;5063076;28;2067;-53
2021/11/11 05:11:34;;;;;;;;;;;;;;;;;;5064390;28;1500;-53
2021/11/11 05:13:59;;;;;;;;;;;;;;;;;;5059880;28;1906;-53
2021/11/11 05:16:25;;;;;;;;;;;;;;;;;;5066113;28;1025;-53
2021/11/11 05:18:50;;;;;;;;;;;;;;;;;;5064689;28;1482;-54
2021/11/11 05:21:15;;;;;;;;;;;;;;;;;;5067899;28;1148;-55
2021/11/11 05:23:41;;;;;;;;;;;;;;;;;;5066365;28;1117;-51
2021/11/11 05:26:06;;;;;;;;;;;;;;;;;;5066665;28;1183;-53
2021/11/11 05:28:32;;;;;;;;;;;;;;;;;;5060964;28;1565;-52
2021/11/11 05:30:57;;;;;;;;;;;;;;;;;;5062389;28;1549;-53
2021/11/11 05:33:22;;;;;;;;;;;;;;;;;;5063119;28;1187;-52
2021/11/11 05:35:47;;;;;;;;;;;;;;;;;;5065380;28;1906;-54
2021/11/11 05:38:12;;;;;;;;;;;;;;;;;;5066362;28;1307;-52
2021/11/11 05:40:37;;;;;;;;;;;;;;;;;;5064352;28;1474;-55
2021/11/11 05:43:03;;;;;;;;;;;;;;;;;;5062633;28;1419;-53
2021/11/11 05:45:28;;;;;;;;;;;;;;;;;;5065033;28;1025;-53
2021/11/11 05:47:53;;;;;;;;;;;;;;;;;;5063569;28;1468;-54
2021/11/11 05:50:18;;;;;;;;;;;;;;;;;;5064371;28;1524;-53
2021/11/11 05:52:43;;;;;;;;;;;;;;;;;;5062764;28;1033;-50
2021/11/11 05:55:09;;;;;;;;;;;;;;;;;;5064435;28;1902;-53
2021/11/11 05:57:34;;;;;;;;;;;;;;;;;;5067265;28;1212;-53
2021/11/11 05:59:59;;;;;;;;;;;;;;;;;;5062606;28;1513;-54
2021/11/11 06:02:25;;;;;;;;;;;;;;;;;;5063478;28;1450;-53
2021/11/11 06:04:50;;;;;;;;;;;;;;;;;;5066390;28;1364;-53
2021/11/11 06:07:15;;;;;;;;;;;;;;;;;;5069243;28;1220;-52
2021/11/11 06:09:40;;;;;;;;;;;;;;;;;;5070955;28;1164;-55
2021/11/11 06:12:06;;;;;;;;;;;;;;;;;;5065301;28;1478;-54
2021/11/11 06:14:31;;;;;;;;;;;;;;;;;;5067168;28;1979;-54
2021/11/11 06:16:56;;;;;;;;;;;;;;;;;;5069878;28;1271;-53
2021/11/11 06:19:21;;;;;;;;;;;;;;;;;;5069446;28;1506;-53
2021/11/11 06:21:47;;;;;;;;;;;;;;;;;;5048500;28;1531;-53
2021/11/11 06:24:12;;;;;;;;;;;;;;;;;;5067911;28;1136;-53
2021/11/11 06:26:37;;;;;;;;;;;;;;;;;;5050543;28;1262;-54
2021/11/11 06:29:03;;;;;;;;;;;;;;;;;;5066304;28;1513;-53
2021/11/11 06:31:28;;;;;;;;;;;;;;;;;;5066257;28;1152;-53
2021/11/11 06:33:53;;;;;;;;;;;;;;;;;;5067701;28;1914;-53
2021/11/11 06:36:18;;;;;;;;;;;;;;;;;;5066955;28;1160;-55
2021/11/11 06:38:44;;;;;;;;;;;;;;;;;;5066614;28;1467;-53
2021/11/11 06:41:09;;;;;;;;;;;;;;;;;;5070215;28;1081;-54
2021/11/11 06:43:34;;;;;;;;;;;;;;;;;;5068098;28;1608;-54
2021/11/11 06:46:00;;;;;;;;;;;;;;;;;;5066295;28;1227;-52
2021/11/11 06:48:25;;;;;;;;;;;;;;;;;;5067888;28;1692;-52
2021/11/11 06:50:50;;;;;;;;;;;;;;;;;;5092268;22;1996;-49
2021/11/11 06:53:16;;;;;;;;;;;;;;;;;;5067012;28;1223;-49
2021/11/11 06:55:42;;;;;;;;;;;;;;;;;;5068661;28;1937;-49
2021/11/11 06:58:07;;;;;;;;;;;;;;;;;;5064613;28;1505;-50
2021/11/11 07:00:33;;;;;;;;;;;;;;;;;;5066499;28;1512;-49
2021/11/11 07:02:58;;;;;;;;;;;;;;;;;;5067945;28;1163;-50
2021/11/11 07:05:23;;;;;;;;;;;;;;;;;;5067328;28;1436;-50
2021/11/11 07:07:48;;;;;;;;;;;;;;;;;;5068820;28;1584;-49
2021/11/11 07:10:14;;;;;;;;;;;;;;;;;;5070332;28;1135;-49
2021/11/11 07:12:39;;;;;;;;;;;;;;;;;;5069022;28;1534;-48
2021/11/11 07:15:06;;;;;;;;;;;;;;;;;;5068131;28;1977;-49
2021/11/11 07:17:33;;;;;;;;;;;;;;;;;;5069591;28;1092;-49
2021/11/11 07:19:59;;;;;;;;;;;;;;;;;;5069923;28;1439;-49
2021/11/11 07:22:24;;;;;;;;;;;;;;;;;;5069143;28;1306;-49
2021/11/11 07:24:49;;;;;;;;;;;;;;;;;;5069698;28;1195;-49
2021/11/11 07:27:14;;;;;;;;;;;;;;;;;;5068158;28;1431;-49
2021/11/11 07:29:39;;;;;;;;;;;;;;;;;;5066772;28;1506;-49
2021/11/11 07:32:05;;;;;;;;;;;;;;;;;;5068368;28;1539;-46
2021/11/11 07:34:30;;;;;;;;;;;;;;;;;;5065899;28;1961;-50
2021/11/11 07:36:55;;;;;;;;;;;;;;;;;;5069830;28;1010;-46
2021/11/11 07:39:21;;;;;;;;;;;;;;;;;;5070356;28;1219;-50
2021/11/11 07:41:47;;;;;;;;;;;;;;;;;;5053892;28;1638;-50
2021/11/11 07:44:12;;;;;;;;;;;;;;;;;;5063285;28;1568;-49
2021/11/11 07:46:38;;;;;;;;;;;;;;;;;;5068708;28;1484;-49
2021/11/11 07:49:04;;;;;;;;;;;;;;;;;;5066358;28;1467;-49
2021/11/11 07:51:29;;;;;;;;;;;;;;;;;;5053255;28;1938;-49
2021/11/11 07:53:54;;;;;;;;;;;;;;;;;;5071092;28;1918;-49
2021/11/11 07:56:19;;;;;;;;;;;;;;;;;;5069537;28;813;-49
2021/11/11 07:58:44;;;;;;;;;;;;;;;;;;5066362;28;1995;-49
2021/11/11 08:01:10;;;;;;;;;;;;;;;;;;5068104;28;1329;-50
2021/11/11 08:03:35;;;;;;;;;;;;;;;;;;5069988;28;1118;-49
2021/11/11 08:06:00;;;;;;;;;;;;;;;;;;5062540;28;1503;-48
2021/11/11 08:08:26;;;;;;;;;;;;;;;;;;5062499;28;1277;-49
2021/11/11 08:10:51;;;;;;;;;;;;;;;;;;5068299;28;1455;-49
2021/11/11 08:13:16;;;;;;;;;;;;;;;;;;5057449;28;1585;-50
2021/11/11 08:15:42;;;;;;;;;;;;;;;;;;5069941;28;1902;-49
2021/11/11 08:18:07;;;;;;;;;;;;;;;;;;5066315;28;1759;-49
2021/11/11 08:20:32;;;;;;;;;;;;;;;;;;5065147;28;1642;-48
2021/11/11 08:22:57;;;;;;;;;;;;;;;;;;5068790;28;1013;-50
2021/11/11 08:25:22;;;;;;;;;;;;;;;;;;5069084;28;908;-49
2021/11/11 08:27:49;;;;;;;;;;;;;;;;;;5066979;28;1450;-49
2021/11/11 08:30:15;;;;;;;;;;;;;;;;;;5068420;28;1501;-49
2021/11/11 08:32:41;;;;;;;;;;;;;;;;;;5066229;28;1396;-49
2021/11/11 08:35:07;;;;;;;;;;;;;;;;;;5064313;28;1914;-46
2021/11/11 08:37:32;;;;;;;;;;;;;;;;;;5069004;28;1001;-48
2021/11/11 08:39:57;;;;;;;;;;;;;;;;;;5067296;28;2008;-49
2021/11/11 08:42:22;;;;;;;;;;;;;;;;;;5061798;28;1183;-48
2021/11/11 08:44:48;;;;;;;;;;;;;;;;;;5069135;28;849;-49
2021/11/11 08:47:16;;;;;;;;;;;;;;;;;;5067386;28;1882;-47
2021/11/11 08:49:43;;;;;;;;;;;;;;;;;;5067195;28;1415;-48
2021/11/11 08:52:09;;;;;;;;;;;;;;;;;;5065776;28;1367;-48
2021/11/11 08:54:34;;;;;;;;;;;;;;;;;;5067011;28;1922;-49
2021/11/11 08:56:59;;;;;;;;;;;;;;;;;;5060645;28;1936;-48
2021/11/11 08:59:25;;;;;;;;;;;;;;;;;;5065924;28;1453;-48
2021/11/11 09:01:50;;;;;;;;;;;;;;;;;;5068210;28;1620;-48
2021/11/11 09:04:16;;;;;;;;;;;;;;;;;;5063356;28;1467;-48
2021/11/11 09:06:41;;;;;;;;;;;;;;;;;;5055352;28;1505;-48
2021/11/11 09:09:06;;;;;;;;;;;;;;;;;;5068192;28;1274;-48
2021/11/11 09:11:32;;;;;;;;;;;;;;;;;;5065580;28;1563;-48
2021/11/11 09:13:57;;;;;;;;;;;;;;;;;;5062579;28;1969;-49
2021/11/11 09:16:24;;;;;;;;;;;;;;;;;;5067730;28;802;-48
2021/11/11 09:18:50;;;;;;;;;;;;;;;;;;5062706;28;1509;-47
2021/11/11 09:21:15;;;;;;;;;;;;;;;;;;5069125;28;1204;-48
2021/11/11 09:23:40;;;;;;;;;;;;;;;;;;5066482;28;1594;-48
2021/11/11 09:26:06;;;;;;;;;;;;;;;;;;5067613;28;1922;-48
2021/11/11 09:28:31;;;;;;;;;;;;;;;;;;5068859;28;1017;-49
2021/11/11 09:30:57;;;;;;;;;;;;;;;;;;5068113;28;1507;-47
2021/11/11 09:33:23;;;;;;;;;;;;;;;;;;5048880;28;834;-47
2021/11/11 09:35:50;;;;;;;;;;;;;;;;;;5049422;28;1902;-48
2021/11/11 09:38:15;;;;;;;;;;;;;;;;;;5066096;28;1335;-47
2021/11/11 09:40:40;;;;;;;;;;;;;;;;;;5067778;28;1914;-49
2021/11/11 09:43:07;;;;;;;;;;;;;;;;;;5068962;28;1057;-48
2021/11/11 09:45:33;;;;;;;;;;;;;;;;;;5064335;28;1541;-48
2021/11/11 09:47:59;;;;;;;;;;;;;;;;;;5047336;28;1404;-48
2021/11/11 09:50:25;;;;;;;;;;;;;;;;;;5053643;28;1653;-48
2021/11/11 09:52:51;;;;;;;;;;;;;;;;;;5048775;28;1272;-48
2021/11/11 10:00:46;;;;;;;;;;;;;;;;;;5062114;28;1505;-48
2021/11/11 10:03:11;;;;;;;;;;;;;;;;;;5068407;28;1009;-49
2021/11/11 10:05:36;;;;;;;;;;;;;;;;;;5050767;28;1614;-49
2021/11/11 10:08:02;;;;;;;;;;;;;;;;;;5057945;28;1505;-48
2021/11/11 10:10:34;;;;;;;;;;;;;;;;;;5068510;28;1022;-48
2021/11/11 10:13:20;;;;;;;;;;;;;;;;;;5064498;28;1451;-48
2021/11/11 10:15:58;;;;;;;;;;;;;;;;;;5046691;28;1905;-49
2021/11/11 10:18:38;;;;;;;;;;;;;;;;;;5064853;28;1707;-48
2021/11/11 10:21:11;;;;;;;;;;;;;;;;;;5063180;28;1361;-48
2021/11/11 10:23:37;;;;;;;;;;;;;;;;;;5050593;28;1330;-48
2021/11/11 10:26:24;;;;;;;;;;;;;;;;;;5065889;28;1558;-48
2021/11/11 10:28:50;;;;;;;;;;;;;;;;;;5057419;28;1547;-48
2021/11/11 10:31:18;;;;;;;;;;;;;;;;;;5067093;28;1283;-48
2021/11/11 10:34:04;;;;;;;;;;;;;;;;;;5066155;28;1967;-48
2021/11/11 10:36:41;;;;;;;;;;;;;;;;;;5065480;28;1917;-47
2021/11/11 10:39:12;;;;;;;;;;;;;;;;;;5066829;28;1013;-49
2021/11/11 10:41:37;;;;;;;;;;;;;;;;;;5065659;28;1964;-48
2021/11/11 10:44:16;;;;;;;;;;;;;;;;;;5067609;28;1061;-48
2021/11/11 10:46:45;;;;;;;;;;;;;;;;;;5066869;28;829;-48
2021/11/11 10:49:37;;;;;;;;;;;;;;;;;;5065413;28;1541;-49
2021/11/11 10:52:21;;;;;;;;;;;;;;;;;;5067420;28;1906;-48
2021/11/11 10:55:05;;;;;;;;;;;;;;;;;;5069318;28;2269;-48
2021/11/11 10:57:41;;;;;;;;;;;;;;;;;;5067571;28;1969;-48
2021/11/11 11:00:14;;;;;;;;;;;;;;;;;;5069854;28;1049;-48
2021/11/11 11:02:59;;;;;;;;;;;;;;;;;;5070340;28;1941;-48
2021/11/11 11:05:29;;;;;;;;;;;;;;;;;;5069427;28;1737;-48
2021/11/11 11:08:03;;;;;;;;;;;;;;;;;;5051215;28;1642;-48
2021/11/11 11:10:28;;;;;;;;;;;;;;;;;;5071508;28;1006;-48
2021/11/11 11:12:55;;;;;;;;;;;;;;;;;;5063803;28;1497;-48
2021/11/11 11:15:37;;;;;;;;;;;;;;;;;;5070645;28;1898;-48
2021/11/11 11:18:02;;;;;;;;;;;;;;;;;;5067746;28;1636;-48
2021/11/11 11:20:28;;;;;;;;;;;;;;;;;;5070476;28;1598;-48
2021/11/11 11:23:12;;;;;;;;;;;;;;;;;;5069819;28;1128;-49
2021/11/11 11:25:37;;;;;;;;;;;;;;;;;;5070664;28;877;-47
2021/11/11 11:28:21;;;;;;;;;;;;;;;;;;5067567;28;1649;-49
2021/11/11 11:30:50;;;;;;;;;;;;;;;;;;5070102;28;1207;-47
2021/11/11 11:33:18;;;;;;;;;;;;;;;;;;5068964;28;1513;-50
2021/11/11 11:35:43;;;;;;;;;;;;;;;;;;5068762;28;2046;-48
2021/11/11 11:38:21;;;;;;;;;;;;;;;;;;5064757;28;1277;-49
2021/11/11 11:40:47;;;;;;;;;;;;;;;;;;5071130;28;1301;-49
2021/11/11 11:43:12;;;;;;;;;;;;;;;;;;5065142;28;1910;-48
2021/11/11 11:45:37;;;;;;;;;;;;;;;;;;5051137;28;1484;-48
2021/11/11 11:48:16;;;;;;;;;;;;;;;;;;5067658;28;1672;-48
2021/11/11 11:50:49;;;;;;;;;;;;;;;;;;5067176;28;1581;-48
2021/11/11 11:53:16;;;;;;;;;;;;;;;;;;5069435;28;876;-48
2021/11/11 11:55:46;;;;;;;;;;;;;;;;;;5069861;28;1942;-47
2021/11/11 11:58:19;;;;;;;;;;;;;;;;;;5065628;28;1512;-48
2021/11/11 12:05:47;;;;;;;;;;;;;;;;;;5053516;28;1661;-48
2021/11/11 12:13:54;;;;;;;;;;;;;;;;;;5067340;28;1930;-47
2021/11/11 12:16:29;;;;;;;;;;;;;;;;;;5068136;28;1913;-47
2021/11/11 12:41:08;;;;;;;;;;;;;;;;;;5069570;28;1214;-48
2021/11/11 12:43:34;;;;;;;;;;;;;;;;;;5063185;28;1559;-48
2021/11/11 12:45:59;;;;;;;;;;;;;;;;;;5067743;28;1034;-48
2021/11/11 12:48:24;;;;;;;;;;;;;;;;;;5067377;28;1878;-48
2021/11/11 12:50:49;;;;;;;;;;;;;;;;;;5067316;28;1586;-54
2021/11/11 12:53:16;;;;;;;;;;;;;;;;;;5099332;22;1648;-54
2021/11/11 12:55:46;;;;;;;;;;;;;;;;;;5077260;28;1910;-52
2021/11/11 12:58:16;;;;;;;;;;;;;;;;;;5077408;28;1547;-55
2021/11/11 13:00:46;;;;;;;;;;;;;;;;;;5078315;28;1108;-55
2021/11/11 13:03:11;;;;;;;;;;;;;;;;;;5062031;28;1546;-54
2021/11/11 13:05:43;;;;;;;;;;;;;;;;;;5058176;28;1349;-54
2021/11/11 13:08:09;;;;;;;;;;;;;;;;;;5057005;28;1133;-54
2021/11/11 13:10:35;;;;;;;;;;;;;;;;;;5058296;28;1176;-55
2021/11/11 13:13:07;;;;;;;;;;;;;;;;;;5040287;28;1700;-54
2021/11/11 13:15:41;;;;;;;;;;;;;;;;;;5057971;28;1918;-53
2021/11/11 13:18:06;;;;;;;;;;;;;;;;;;5057030;28;1614;-57
2021/11/11 13:20:35;;;;;;;;;;;;;;;;;;5057591;28;1532;-53
2021/11/11 13:23:06;;;;;;;;;;;;;;;;;;5057047;28;1398;-55
2021/11/11 13:25:45;;;;;;;;;;;;;;;;;;5041342;28;1597;-54
2021/11/11 16:01:03;;;;;;;;;;;;;;;;;;5058884;28;1302;-53
2021/11/11 16:20:11;;;;;;;;;;;;;;;;;;5058427;28;1449;-54
2021/11/11 16:27:34;;;;;;;;;;;;;;;;;;5058222;28;1152;-53
2021/11/11 16:30:09;;;;;;;;;;;;;;;;;;5055015;28;1826;-54
2021/11/11 16:32:34;;;;;;;;;;;;;;;;;;5057071;28;1321;-53
2021/11/11 16:34:59;;;;;;;;;;;;;;;;;;5057686;28;1964;-50
2021/11/11 16:37:24;;;;;;;;;;;;;;;;;;5056186;28;1411;-53
2021/11/11 16:39:51;;;;;;;;;;;;;;;;;;5054759;28;1499;-54
2021/11/11 16:42:16;;;;;;;;;;;;;;;;;;5057506;28;1305;-54
2021/11/11 16:44:41;;;;;;;;;;;;;;;;;;5058639;28;1406;-56
2021/11/11 16:47:08;;;;;;;;;;;;;;;;;;5065768;28;1361;-55
2021/11/11 16:49:34;;;;;;;;;;;;;;;;;;5061126;28;1468;-55
2021/11/11 16:51:59;;;;;;;;;;;;;;;;;;5057340;28;1274;-54
2021/11/11 16:54:24;;;;;;;;;;;;;;;;;;5056894;28;1898;-54
2021/11/11 16:56:50;;;;;;;;;;;;;;;;;;5055397;28;1515;-55
2021/11/11 16:59:15;;;;;;;;;;;;;;;;;;5056471;28;1473;-56
2021/11/11 17:01:40;;;;;;;;;;;;;;;;;;5056586;28;1439;-55
2021/11/11 17:04:05;;;;;;;;;;;;;;;;;;5037015;28;1450;-54
2021/11/11 17:06:30;;;;;;;;;;;;;;;;;;5056169;28;1222;-56
2021/11/11 17:08:55;;;;;;;;;;;;;;;;;;5040331;28;1789;-55
2021/11/11 17:11:21;;;;;;;;;;;;;;;;;;5057934;28;1482;-54
2021/11/11 17:13:46;;;;;;;;;;;;;;;;;;5058142;28;1381;-55
2021/11/11 17:16:12;;;;;;;;;;;;;;;;;;5058526;28;1934;-54
2021/11/11 17:18:38;;;;;;;;;;;;;;;;;;5057093;28;1259;-55
2021/11/11 17:21:04;;;;;;;;;;;;;;;;;;5056387;28;1596;-55
2021/11/11 17:23:35;;;;;;;;;;;;;;;;;;5057307;28;1284;-55
2021/11/11 17:28:44;;;;;;;;;;;;;;;;;;5057719;28;1442;-55
2021/11/11 17:31:10;;;;;;;;;;;;;;;;;;5056563;28;1141;-55
2021/11/11 17:33:36;;;;;;;;;;;;;;;;;;5057550;28;1290;-56
2021/11/11 17:36:01;;;;;;;;;;;;;;;;;;5056739;28;1914;-54
2021/11/11 17:38:27;;;;;;;;;;;;;;;;;;5057081;28;1247;-54
2021/11/11 17:40:53;;;;;;;;;;;;;;;;;;5057542;28;1169;-55
2021/11/11 17:43:19;;;;;;;;;;;;;;;;;;5057335;28;1605;-54
2021/11/11 17:45:58;;;;;;;;;;;;;;;;;;5056155;28;1188;-55
2021/11/11 17:48:25;;;;;;;;;;;;;;;;;;5057092;28;1579;-55
2021/11/11 17:53:51;;;;;;;;;;;;;;;;;;5022084;28;1332;-55
2021/11/11 17:56:17;;;;;;;;;;;;;;;;;;5056703;28;1975;-54
2021/11/11 17:58:45;;;;;;;;;;;;;;;;;;5058969;28;1385;-56
2021/11/11 18:01:11;;;;;;;;;;;;;;;;;;5062435;28;1633;-55
2021/11/11 18:03:40;;;;;;;;;;;;;;;;;;5063535;28;1473;-55
2021/11/11 18:06:15;;;;;;;;;;;;;;;;;;5060708;28;946;-55
2021/11/11 18:08:42;;;;;;;;;;;;;;;;;;5060466;28;1581;-55
2021/11/11 18:11:11;;;;;;;;;;;;;;;;;;5061278;28;985;-54
2021/11/11 18:13:38;;;;;;;;;;;;;;;;;;5062844;28;1567;-54
2021/11/11 18:16:17;;;;;;;;;;;;;;;;;;5061758;28;1906;-54
2021/11/11 18:18:42;;;;;;;;;;;;;;;;;;5044316;28;1418;-53
2021/11/11 18:21:10;;;;;;;;;;;;;;;;;;5060606;28;1445;-53
2021/11/11 18:23:35;;;;;;;;;;;;;;;;;;5060566;28;1282;-53
2021/11/11 18:26:00;;;;;;;;;;;;;;;;;;5060139;28;1187;-55
2021/11/11 18:28:27;;;;;;;;;;;;;;;;;;5060913;28;1402;-56
2021/11/11 18:30:54;;;;;;;;;;;;;;;;;;5064585;28;1231;-55
2021/11/11 18:33:21;;;;;;;;;;;;;;;;;;5068385;28;1282;-56
2021/11/11 18:35:52;;;;;;;;;;;;;;;;;;5066678;28;1902;-54
2021/11/11 18:38:18;;;;;;;;;;;;;;;;;;5065119;28;1181;-51
2021/11/11 18:40:44;;;;;;;;;;;;;;;;;;5063873;28;1414;-52
2021/11/11 18:43:09;;;;;;;;;;;;;;;;;;5060825;28;1489;-53
2021/11/11 18:45:35;;;;;;;;;;;;;;;;;;5060942;28;1179;-54
2021/11/11 18:48:23;;;;;;;;;;;;;;;;;;5060499;28;1338;-54
2021/11/11 18:50:53;;;;;;;;;;;;;;;;;;5061348;28;1429;-53
2021/11/11 18:53:18;;;;;;;;;;;;;;;;;;5088171;23;4231;-87
2021/11/11 18:55:43;;;;;;;;;;;;;;;;;;5075913;28;1890;-87
2021/11/11 18:58:08;;;;;;;;;;;;;;;;;;5076106;28;1141;-87
2021/11/11 19:00:34;;;;;;;;;;;;;;;;;;5080030;28;1409;-87
2021/11/11 19:02:59;;;;;;;;;;;;;;;;;;5082738;28;1436;-87
2021/11/11 19:08:06;;;;;;;;;;;;;;;;;;5104725;28;1459;-88
2021/11/11 19:10:33;;;;;;;;;;;;;;;;;;5085059;28;1239;-88
2021/11/11 19:13:02;;;;;;;;;;;;;;;;;;5090164;28;1612;-87
2021/11/11 19:15:29;;;;;;;;;;;;;;;;;;5081575;28;1898;-87
2021/11/11 19:17:57;;;;;;;;;;;;;;;;;;5073487;28;1338;-87
2021/11/11 19:20:25;;;;;;;;;;;;;;;;;;5076912;28;1518;-87
2021/11/11 19:22:51;;;;;;;;;;;;;;;;;;5090748;28;1132;-87
2021/11/11 19:25:16;;;;;;;;;;;;;;;;;;5083330;28;1108;-87
2021/11/11 19:27:42;;;;;;;;;;;;;;;;;;5065137;28;1327;-87
2021/11/11 19:30:08;;;;;;;;;;;;;;;;;;5105121;28;1259;-87
2021/11/11 19:32:34;;;;;;;;;;;;;;;;;;5067654;28;1313;-88
2021/11/11 19:35:19;;;;;;;;;;;;;;;;;;5069131;28;1906;-87
2021/11/11 20:03:32;;;;;;;;;;;;;;;;;;5096854;28;1254;-87
2021/11/11 20:08:34;;;;;;;;;;;;;;;;;;5086852;28;1114;-86
2021/11/11 20:11:10;;;;;;;;;;;;;;;;;;5101260;28;1399;-87
2021/11/11 20:18:51;;;;;;;;;;;;;;;;;;5074114;28;1352;-88
2021/11/11 21:00:24;;;;;;;;;;;;;;;;;;5064745;28;1260;-87
2021/11/11 21:03:06;;;;;;;;;;;;;;;;;;5060633;28;1216;-88
2021/11/11 21:05:58;;;;;;;;;;;;;;;;;;5072208;28;1368;-88
2021/11/11 21:13:41;;;;;;;;;;;;;;;;;;5088195;28;1319;-87
2021/11/11 21:18:59;;;;;;;;;;;;;;;;;;5087861;28;1300;-88
2021/11/11 21:21:28;;;;;;;;;;;;;;;;;;5052414;28;1400;-88
2021/11/11 21:23:54;;;;;;;;;;;;;;;;;;5068143;28;1227;-87
2021/11/11 21:26:19;;;;;;;;;;;;;;;;;;5069751;28;1095;-88
2021/11/11 21:28:49;;;;;;;;;;;;;;;;;;5071010;28;1066;-88
2021/11/11 21:31:16;;;;;;;;;;;;;;;;;;5077136;28;1333;-87
2021/11/11 21:33:44;;;;;;;;;;;;;;;;;;5045381;28;1386;-88
2021/11/11 21:36:17;;;;;;;;;;;;;;;;;;5062045;28;1906;-88
2021/11/11 21:38:49;;;;;;;;;;;;;;;;;;5089395;28;1300;-87
2021/11/11 21:41:27;;;;;;;;;;;;;;;;;;5070351;28;1395;-87
2021/11/11 21:43:52;;;;;;;;;;;;;;;;;;5072105;28;1462;-87
2021/11/11 21:46:19;;;;;;;;;;;;;;;;;;5064561;28;1200;-87
2021/11/11 21:48:45;;;;;;;;;;;;;;;;;;5067511;28;1503;-87
2021/11/11 21:51:10;;;;;;;;;;;;;;;;;;5069457;28;1237;-87
2021/11/11 21:53:38;;;;;;;;;;;;;;;;;;5072444;28;1215;-87
2021/11/11 22:23:04;;;;;;;;;;;;;;;;;;5068502;28;1184;-87
2021/11/11 22:25:52;;;;;;;;;;;;;;;;;;5077974;28;1421;-87
2021/11/11 22:28:25;;;;;;;;;;;;;;;;;;5079443;28;1347;-87
2021/11/11 22:33:44;;;;;;;;;;;;;;;;;;5090693;28;950;-87
2021/11/11 22:36:09;;;;;;;;;;;;;;;;;;5094190;28;1955;-87
2021/11/11 22:38:34;;;;;;;;;;;;;;;;;;5066081;28;1492;-87
2021/11/11 22:40:59;;;;;;;;;;;;;;;;;;5106383;28;1435;-88
2021/11/11 22:43:24;;;;;;;;;;;;;;;;;;5078116;28;1487;-87
2021/11/11 22:45:50;;;;;;;;;;;;;;;;;;5063013;28;1449;-87
2021/11/11 22:48:15;;;;;;;;;;;;;;;;;;5095844;28;1143;-87
2021/11/11 22:50:40;;;;;;;;;;;;;;;;;;5078583;28;1299;-87
2021/11/11 22:55:40;;;;;;;;;;;;;;;;;;5086387;28;1886;-86
2021/11/11 22:58:13;;;;;;;;;;;;;;;;;;5066453;28;1726;-87